| time (UTC) | temp C | wind direction | speed KPH | gust KPH | rain 1hr cm | rain 24hr cm | rain mn cm | humidity % | barometer mb |
| 20260906003112 | 30 | 303 | 0.0 | 0.0 | 0.00 | 0.00 | 0.00 | 64 | 1007.6 |
| 20260906001558 | 31 | 303 | 0.0 | 0.0 | 0.00 | 0.00 | 0.00 | 62 | 1007.5 |
| 20260906000104 | 31 | 303 | 0.0 | 0.0 | 0.00 | 0.00 | 0.00 | 58 | 1007.7 |
| 20260905234606 | 32 | 303 | 0.0 | 0.0 | 0.00 | 0.00 | 0.00 | 54 | 1007.7 |
| 20260905233059 | 33 | 303 | 0.0 | 3.2 | 0.00 | 0.00 | 0.00 | 53 | 1007.6 |
| 20260905231557 | 34 | 302 | 1.6 | 4.8 | 0.00 | 0.00 | 0.00 | 47 | 1007.6 |
| 20260905230056 | 35 | 335 | 0.0 | 6.4 | 0.00 | 0.00 | 0.00 | 47 | 1007.6 |
| 20260905224555 | 35 | 329 | 1.6 | 8.0 | 0.00 | 0.00 | 0.00 | 45 | 1007.4 |
| 20260905223054 | 35 | 327 | 3.2 | 16.1 | 0.00 | 0.00 | 0.00 | 45 | 1007.4 |
| 20260905221553 | 36 | 330 | 1.6 | 14.5 | 0.00 | 0.00 | 0.00 | 44 | 1007.4 |
| 20260905220053 | 36 | 360 | 3.2 | 12.9 | 0.00 | 0.00 | 0.00 | 44 | 1007.4 |
| 20260905214552 | 36 | 300 | 1.6 | 9.7 | 0.00 | 0.00 | 0.00 | 44 | 1007.3 |
| 20260905213051 | 36 | 295 | 3.2 | 14.5 | 0.00 | 0.00 | 0.00 | 43 | 1007.4 |
| 20260905211549 | 36 | 286 | 3.2 | 9.7 | 0.00 | 0.00 | 0.00 | 43 | 1007.6 |
| 20260905210048 | 36 | 316 | 4.8 | 14.5 | 0.00 | 0.00 | 0.00 | 43 | 1007.7 |
| 20260905204557 | 37 | 360 | 3.2 | 6.4 | 0.00 | 0.00 | 0.00 | 43 | 1007.8 |
| 20260905203053 | 35 | 19 | 0.0 | 3.2 | 0.00 | 0.00 | 0.00 | 46 | 1008.2 |
| 20260905201545 | 36 | 318 | 4.8 | 14.5 | 0.00 | 0.00 | 0.00 | 42 | 1008.5 |
| 20260905200140 | 36 | 298 | 0.0 | 6.4 | 0.00 | 0.00 | 0.00 | 47 | 1008.5 |
| 20260905194545 | 36 | 325 | 0.0 | 11.3 | 0.00 | 0.00 | 0.00 | 45 | 1008.6 |
| 20260905193036 | 36 | 331 | 0.0 | 8.0 | 0.00 | 0.00 | 0.00 | 48 | 1008.9 |
| 20260905191534 | 36 | 360 | 3.2 | 14.5 | 0.00 | 0.00 | 0.00 | 48 | 1009.1 |
| 20260905190035 | 37 | 311 | 3.2 | 14.5 | 0.00 | 0.00 | 0.00 | 44 | 1009.3 |
| 20260905184533 | 36 | 235 | 1.6 | 11.3 | 0.00 | 0.00 | 0.00 | 43 | 1009.5 |
| 20260905183026 | 36 | 294 | 0.0 | 14.5 | 0.00 | 0.00 | 0.00 | 43 | 1009.7 |
| 20260905181533 | 36 | 289 | 1.6 | 8.0 | 0.00 | 0.00 | 0.00 | 45 | 1009.8 |
| 20260905180023 | 36 | 264 | 3.2 | 8.0 | 0.00 | 0.00 | 0.00 | 50 | 1010.0 |
| 20260905174521 | 36 | 38 | 1.6 | 9.7 | 0.00 | 0.00 | 0.00 | 49 | 1010.2 |
| 20260905173020 | 36 | 285 | 3.2 | 11.3 | 0.00 | 0.00 | 0.00 | 48 | 1010.5 |
| 20260905171524 | 35 | 223 | 3.2 | 14.5 | 0.00 | 0.00 | 0.00 | 55 | 1010.7 |
| 20260905170017 | 35 | 295 | 1.6 | 12.9 | 0.00 | 0.00 | 0.00 | 48 | 1010.7 |
| 20260905164515 | 35 | 329 | 0.0 | 6.4 | 0.00 | 0.00 | 0.00 | 48 | 1010.7 |
| 20260905163013 | 35 | 14 | 1.6 | 12.9 | 0.00 | 0.00 | 0.00 | 49 | 1011.0 |
| 20260905161511 | 35 | 30 | 3.2 | 9.7 | 0.00 | 0.00 | 0.00 | 51 | 1011.0 |
| 20260905160032 | 34 | 298 | 1.6 | 8.0 | 0.00 | 0.00 | 0.00 | 54 | 1011.1 |
| 20260905154508 | 34 | 13 | 1.6 | 8.0 | 0.00 | 0.00 | 0.00 | 54 | 1011.2 |
| 20260905153107 | 33 | 296 | 3.2 | 12.9 | 0.00 | 0.00 | 0.00 | 57 | 1011.3 |
| 20260905151505 | 33 | 282 | 0.0 | 0.0 | 0.00 | 0.00 | 0.00 | 56 | 1011.3 |
| 20260905150005 | 33 | 277 | 0.0 | 0.0 | 0.00 | 0.00 | 0.00 | 59 | 1011.4 |
| 20260905144501 | 33 | 302 | 0.0 | 0.0 | 0.00 | 0.00 | 0.00 | 59 | 1011.4 |
| 20260905143059 | 32 | 325 | 0.0 | 0.0 | 0.00 | 0.00 | 0.00 | 62 | 1011.4 |
| 20260905141555 | 31 | 329 | 0.0 | 0.0 | 0.00 | 0.00 | 0.00 | 65 | 1011.5 |
| 20260905140051 | 31 | 288 | 0.0 | 0.0 | 0.00 | 0.00 | 0.00 | 66 | 1011.5 |
| 20260905134552 | 30 | 313 | 0.0 | 0.0 | 0.00 | 0.00 | 0.00 | 70 | 1011.6 |
| 20260905133042 | 29 | 315 | 0.0 | 0.0 | 0.00 | 0.00 | 0.00 | 73 | 1011.7 |
| 20260905131548 | 28 | 302 | 0.0 | 0.0 | 0.00 | 0.00 | 0.00 | 77 | 1011.7 |
| 20260905130035 | 27 | 227 | 0.0 | 0.0 | 0.00 | 0.00 | 0.00 | 79 | 1011.7 |
| 20260905124536 | 26 | 227 | 0.0 | 0.0 | 0.00 | 0.00 | 0.00 | 82 | 1011.7 |
| 20260905123028 | 25 | 226 | 0.0 | 0.0 | 0.00 | 0.00 | 0.00 | 86 | 1011.6 |
| 20260905121527 | 25 | 226 | 0.0 | 0.0 | 0.00 | 0.00 | 0.00 | 85 | 1011.5 |
| 20260905120025 | 25 | 224 | 0.0 | 0.0 | 0.00 | 0.00 | 0.00 | 86 | 1011.3 |
| 20260905114536 | 24 | 223 | 0.0 | 0.0 | 0.00 | 0.00 | 0.00 | 87 | 1011.1 |
| 20260905113032 | 24 | 224 | 0.0 | 0.0 | 0.00 | 0.00 | 0.00 | 86 | 1011.1 |
| 20260905111524 | 24 | 224 | 0.0 | 0.0 | 0.00 | 0.00 | 0.00 | 86 | 1011.0 |
| 20260905110020 | 25 | 223 | 0.0 | 0.0 | 0.00 | 0.00 | 0.00 | 84 | 1010.8 |
| 20260905104522 | 25 | 224 | 0.0 | 0.0 | 0.00 | 0.00 | 0.00 | 85 | 1010.7 |
| 20260905103024 | 24 | 223 | 0.0 | 0.0 | 0.00 | 0.00 | 0.00 | 87 | 1010.6 |
| 20260905101529 | 23 | 223 | 0.0 | 0.0 | 0.00 | 0.00 | 0.00 | 89 | 1010.4 |
| 20260905100022 | 23 | 223 | 0.0 | 0.0 | 0.00 | 0.00 | 0.00 | 88 | 1010.4 |
| 20260905094518 | 23 | 223 | 0.0 | 0.0 | 0.00 | 0.00 | 0.00 | 88 | 1010.5 |
| 20260905093018 | 23 | 223 | 0.0 | 0.0 | 0.00 | 0.00 | 0.00 | 88 | 1010.3 |
| 20260905091519 | 23 | 223 | 0.0 | 0.0 | 0.00 | 0.00 | 0.00 | 89 | 1010.3 |
| 20260905090016 | 23 | 223 | 0.0 | 0.0 | 0.00 | 0.00 | 0.00 | 87 | 1010.0 |
| 20260905084514 | 24 | 223 | 0.0 | 0.0 | 0.00 | 0.00 | 0.00 | 87 | 1010.1 |
| 20260905083013 | 23 | 223 | 0.0 | 0.0 | 0.00 | 0.00 | 0.00 | 88 | 1010.1 |
| 20260905081512 | 23 | 223 | 0.0 | 0.0 | 0.00 | 0.00 | 0.00 | 88 | 1010.1 |
| 20260905080012 | 23 | 223 | 0.0 | 0.0 | 0.00 | 0.00 | 0.00 | 89 | 1010.2 |
| 20260905074510 | 23 | 223 | 0.0 | 0.0 | 0.00 | 0.00 | 0.00 | 89 | 1010.3 |
| 20260905073013 | 23 | 223 | 0.0 | 0.0 | 0.00 | 0.00 | 0.00 | 88 | 1010.3 |
| 20260905071510 | 23 | 223 | 0.0 | 0.0 | 0.00 | 0.00 | 0.00 | 89 | 1010.4 |
| 20260905070008 | 24 | 223 | 0.0 | 0.0 | 0.00 | 0.00 | 0.00 | 88 | 1010.5 |
| 20260905064506 | 24 | 223 | 0.0 | 0.0 | 0.00 | 0.00 | 0.00 | 88 | 1010.6 |
| 20260905063003 | 24 | 223 | 0.0 | 3.2 | 0.00 | 0.00 | 0.00 | 88 | 1010.8 |
| 20260905061612 | 24 | 223 | 0.0 | 1.6 | 0.00 | 0.00 | 0.00 | 87 | 1010.8 |
| 20260905060100 | 24 | 223 | 0.0 | 3.2 | 0.00 | 0.00 | 0.00 | 87 | 1010.8 |
| 20260905054558 | 25 | 225 | 0.0 | 0.0 | 0.00 | 0.00 | 0.00 | 87 | 1010.9 |
| 20260905053102 | 25 | 225 | 0.0 | 0.0 | 0.00 | 0.00 | 0.00 | 86 | 1010.9 |
| 20260905051555 | 25 | 225 | 0.0 | 0.0 | 0.00 | 0.00 | 0.00 | 85 | 1010.9 |
| 20260905050052 | 25 | 225 | 0.0 | 0.0 | 0.00 | 0.00 | 0.00 | 84 | 1010.8 |
| 20260905044553 | 26 | 225 | 0.0 | 0.0 | 0.00 | 0.00 | 0.00 | 81 | 1010.8 |
| 20260905043051 | 26 | 225 | 0.0 | 0.0 | 0.00 | 0.00 | 0.00 | 82 | 1010.9 |
| 20260905041553 | 27 | 225 | 0.0 | 4.8 | 0.00 | 0.00 | 0.00 | 77 | 1011.0 |
| 20260905040050 | 26 | 225 | 0.0 | 4.8 | 0.00 | 0.00 | 0.00 | 78 | 1010.9 |
| 20260905034552 | 27 | 225 | 0.0 | 4.8 | 0.00 | 0.00 | 0.00 | 75 | 1010.9 |
| 20260905033148 | 28 | 223 | 1.6 | 4.8 | 0.00 | 0.00 | 0.00 | 72 | 1011.0 |
| 20260905031548 | 27 | 166 | 1.6 | 4.8 | 0.00 | 0.00 | 0.00 | 76 | 1011.1 |
| 20260905030058 | 26 | 130 | 0.0 | 4.8 | 0.00 | 0.00 | 0.00 | 81 | 1011.3 |
| 20260905024547 | 26 | 130 | 0.0 | 0.0 | 0.00 | 0.00 | 0.00 | 80 | 1011.3 |
| 20260905023046 | 27 | 130 | 0.0 | 4.8 | 0.00 | 0.00 | 0.00 | 76 | 1011.2 |
| 20260905021546 | 27 | 142 | 0.0 | 11.3 | 0.00 | 0.00 | 0.00 | 76 | 1011.3 |
| 20260905020059 | 27 | 209 | 0.0 | 0.0 | 0.00 | 0.00 | 0.00 | 79 | 1011.1 |
| 20260905014547 | 27 | 209 | 0.0 | 4.8 | 0.00 | 0.00 | 0.00 | 78 | 1011.0 |
| 20260905013044 | 27 | 209 | 0.0 | 0.0 | 0.00 | 0.00 | 0.00 | 73 | 1010.8 |
| 20260905011544 | 28 | 209 | 0.0 | 0.0 | 0.00 | 0.00 | 0.00 | 73 | 1010.8 |
| 20260905010052 | 28 | 209 | 0.0 | 0.0 | 0.00 | 0.00 | 0.00 | 69 | 1010.6 |
| 20260905004602 | 29 | 209 | 0.0 | 0.0 | 0.00 | 0.00 | 0.00 | 67 | 1010.5 |